createdAt,value
2017-10-19T00:00:55.825Z,0.00
2017-10-19T00:01:55.810Z,0.00
2017-10-19T00:02:55.780Z,0.00
2017-10-19T00:03:55.758Z,0.00
2017-10-19T00:04:55.739Z,0.00
2017-10-19T00:05:55.724Z,0.00
2017-10-19T00:06:55.704Z,0.00
2017-10-19T00:07:55.674Z,0.00
2017-10-19T00:08:55.658Z,0.00
2017-10-19T00:09:55.638Z,0.00
2017-10-19T00:10:55.613Z,0.00
2017-10-19T00:11:55.591Z,0.00
2017-10-19T00:12:55.570Z,0.00
2017-10-19T00:13:55.549Z,0.00
2017-10-19T00:14:55.526Z,0.00
2017-10-19T00:15:55.518Z,0.00
2017-10-19T00:16:55.489Z,0.00
2017-10-19T00:17:55.473Z,0.00
2017-10-19T00:18:55.439Z,0.00
2017-10-19T00:19:55.420Z,0.00
2017-10-19T00:20:55.400Z,0.00
2017-10-19T00:21:55.376Z,0.00
2017-10-19T00:22:55.361Z,0.00
2017-10-19T00:23:55.347Z,0.00
2017-10-19T00:24:55.318Z,0.00
2017-10-19T00:25:55.296Z,0.00
2017-10-19T00:26:55.274Z,0.00
2017-10-19T00:27:55.250Z,0.00
2017-10-19T00:28:55.228Z,0.00
2017-10-19T00:29:55.219Z,0.00
2017-10-19T00:30:55.186Z,0.00
2017-10-19T00:31:55.176Z,0.00
2017-10-19T00:32:55.145Z,0.00
2017-10-19T00:33:55.130Z,0.00
2017-10-19T00:34:55.102Z,0.00
2017-10-19T00:35:55.081Z,0.00
2017-10-19T00:36:55.066Z,0.00
2017-10-19T00:37:55.041Z,0.00
2017-10-19T00:38:55.022Z,0.00
2017-10-19T00:39:54.996Z,0.00
2017-10-19T00:40:54.976Z,0.00
2017-10-19T00:41:54.953Z,0.00
2017-10-19T00:42:54.937Z,0.00
2017-10-19T00:43:54.910Z,0.00
2017-10-19T00:44:54.890Z,0.00
2017-10-19T00:45:54.869Z,0.00
2017-10-19T00:46:54.849Z,0.00
2017-10-19T00:47:54.829Z,0.00
2017-10-19T00:48:54.812Z,0.00
2017-10-19T00:49:54.784Z,0.00
2017-10-19T00:50:54.765Z,0.00
2017-10-19T00:51:54.744Z,0.00
2017-10-19T00:52:54.720Z,0.00
2017-10-19T00:53:54.699Z,0.00
2017-10-19T00:54:54.677Z,0.00
2017-10-19T00:55:54.670Z,0.00
2017-10-19T00:56:54.648Z,0.00
2017-10-19T00:57:54.609Z,0.00
2017-10-19T00:58:54.597Z,0.00
2017-10-19T00:59:54.577Z,0.00
2017-10-19T01:00:54.545Z,0.00
2017-10-19T01:01:54.534Z,0.00
2017-10-19T01:02:54.509Z,0.00
2017-10-19T01:03:54.486Z,0.00
2017-10-19T01:04:54.462Z,0.00
2017-10-19T01:05:54.461Z,0.00
2017-10-19T01:06:54.425Z,0.00
2017-10-19T01:07:54.403Z,0.00
2017-10-19T01:08:54.382Z,0.00
2017-10-19T01:09:54.368Z,0.00
2017-10-19T01:10:54.361Z,0.00
2017-10-19T01:11:54.318Z,0.00
2017-10-19T01:12:54.298Z,0.00
2017-10-19T01:13:54.271Z,0.00
2017-10-19T01:14:54.256Z,0.00
2017-10-19T01:15:54.233Z,0.00
2017-10-19T01:16:54.211Z,0.00
2017-10-19T01:17:54.196Z,0.00
2017-10-19T01:18:54.169Z,0.00
2017-10-19T01:19:54.148Z,0.00
2017-10-19T01:20:54.132Z,0.00
2017-10-19T01:21:54.104Z,0.00
2017-10-19T01:22:54.086Z,0.00
2017-10-19T01:23:54.066Z,0.00
2017-10-19T01:24:54.044Z,0.00
2017-10-19T01:25:54.022Z,0.00
2017-10-19T01:26:54.004Z,0.00
2017-10-19T01:27:53.989Z,0.00
2017-10-19T01:28:53.957Z,0.00
2017-10-19T01:29:53.936Z,0.00
2017-10-19T01:30:53.916Z,0.00
2017-10-19T01:31:53.910Z,0.00
2017-10-19T01:32:53.874Z,0.00
2017-10-19T01:33:53.857Z,0.00
2017-10-19T01:34:53.830Z,0.00
2017-10-19T01:35:53.814Z,0.00
2017-10-19T01:36:53.794Z,0.00
2017-10-19T01:37:53.768Z,0.00
2017-10-19T01:38:53.749Z,0.00
2017-10-19T01:39:53.724Z,0.00
2017-10-19T01:40:53.704Z,0.00
2017-10-19T01:41:53.686Z,0.00
2017-10-19T01:42:53.660Z,0.00
2017-10-19T01:43:53.641Z,0.00
2017-10-19T01:44:53.624Z,0.00
2017-10-19T01:45:53.599Z,0.00
2017-10-19T01:46:53.570Z,0.00
2017-10-19T01:47:53.555Z,0.00
2017-10-19T01:48:53.535Z,0.00
2017-10-19T01:49:53.521Z,0.00
2017-10-19T01:50:53.492Z,0.00
2017-10-19T01:51:53.474Z,0.00
2017-10-19T01:52:53.444Z,0.00
2017-10-19T01:53:53.439Z,0.00
2017-10-19T01:54:53.402Z,0.00
2017-10-19T01:55:53.388Z,0.00
2017-10-19T01:56:53.365Z,0.00
2017-10-19T01:57:53.341Z,0.00
2017-10-19T01:58:53.334Z,0.00
2017-10-19T01:59:53.302Z,0.00
2017-10-19T02:00:53.285Z,0.00
2017-10-19T02:01:53.257Z,0.00
2017-10-19T02:02:53.242Z,0.00
2017-10-19T02:03:53.214Z,0.00
2017-10-19T02:04:53.193Z,0.00
2017-10-19T02:05:53.174Z,0.00
2017-10-19T02:06:53.157Z,0.00
2017-10-19T02:07:53.135Z,0.00
2017-10-19T02:08:53.107Z,0.00
2017-10-19T02:09:53.094Z,0.00
2017-10-19T02:10:53.066Z,0.00
2017-10-19T02:11:53.055Z,0.00
2017-10-19T02:12:53.027Z,0.00
2017-10-19T02:13:53.006Z,0.00
2017-10-19T02:14:52.982Z,0.00
2017-10-19T02:15:52.964Z,0.00
2017-10-19T02:16:52.943Z,0.00
2017-10-19T02:17:52.918Z,0.00
2017-10-19T02:18:52.903Z,0.00
2017-10-19T02:19:52.878Z,0.00
2017-10-19T02:20:52.855Z,0.00
2017-10-19T02:21:52.834Z,0.00
2017-10-19T02:22:52.821Z,0.00
2017-10-19T02:23:52.792Z,0.00
2017-10-19T02:24:52.773Z,0.00
2017-10-19T02:25:52.754Z,0.00
2017-10-19T02:26:52.726Z,0.00
2017-10-19T02:27:52.710Z,0.00
2017-10-19T02:28:52.689Z,0.00
2017-10-19T02:29:52.675Z,0.00
2017-10-19T02:30:52.650Z,0.00
2017-10-19T02:31:52.617Z,0.00
2017-10-19T02:32:52.603Z,0.00
2017-10-19T02:33:52.581Z,0.00
2017-10-19T02:34:52.560Z,0.00
2017-10-19T02:35:52.537Z,0.00
2017-10-19T02:36:52.518Z,0.00
2017-10-19T02:37:52.498Z,0.00
2017-10-19T02:38:52.487Z,0.00
2017-10-19T02:39:52.456Z,0.00
2017-10-19T02:40:52.437Z,0.00
2017-10-19T02:41:52.417Z,0.00
2017-10-19T02:42:52.391Z,0.00
2017-10-19T02:43:52.375Z,0.00
2017-10-19T02:44:52.346Z,0.00
2017-10-19T02:45:52.330Z,0.00
2017-10-19T02:46:52.305Z,0.00
2017-10-19T02:47:52.285Z,0.00
2017-10-19T02:48:52.269Z,0.00
2017-10-19T02:49:52.246Z,0.00
2017-10-19T02:50:52.226Z,0.00
2017-10-19T02:51:52.203Z,0.00
2017-10-19T02:52:52.180Z,0.00
2017-10-19T02:53:52.153Z,0.00
2017-10-19T02:54:52.137Z,0.00
2017-10-19T02:55:52.123Z,0.00
2017-10-19T02:56:52.099Z,0.00
2017-10-19T02:57:52.075Z,0.00
2017-10-19T02:58:52.058Z,0.00
2017-10-19T02:59:52.035Z,0.00
2017-10-19T03:00:52.018Z,0.00
2017-10-19T03:01:51.986Z,0.00
2017-10-19T03:02:51.970Z,0.00
2017-10-19T03:03:51.949Z,0.00
2017-10-19T03:04:51.924Z,0.00
2017-10-19T03:05:51.919Z,0.00
2017-10-19T03:06:51.893Z,0.00
2017-10-19T03:07:51.865Z,0.00
2017-10-19T03:08:51.850Z,0.00
2017-10-19T03:09:51.825Z,0.00
2017-10-19T03:10:51.801Z,0.00
2017-10-19T03:11:51.776Z,0.00
2017-10-19T03:12:51.760Z,0.00
2017-10-19T03:13:51.739Z,0.00
2017-10-19T03:14:51.719Z,0.00
2017-10-19T03:15:51.697Z,0.00
2017-10-19T03:16:51.676Z,0.00
2017-10-19T03:17:51.659Z,0.00
2017-10-19T03:18:51.629Z,0.00
2017-10-19T03:19:51.612Z,0.00
2017-10-19T03:20:51.592Z,0.00
2017-10-19T03:21:51.569Z,0.00
2017-10-19T03:22:51.547Z,0.00
2017-10-19T03:23:51.529Z,0.00
2017-10-19T03:24:51.515Z,0.00
2017-10-19T03:25:51.497Z,0.00
2017-10-19T03:26:51.491Z,0.00
2017-10-19T03:27:51.449Z,0.00
2017-10-19T03:28:51.435Z,0.00
2017-10-19T03:29:51.400Z,0.00
2017-10-19T03:30:51.384Z,0.00
2017-10-19T03:31:51.363Z,0.00
2017-10-19T03:32:51.336Z,0.00
2017-10-19T03:33:51.316Z,0.00
2017-10-19T03:34:51.293Z,0.00
2017-10-19T03:35:51.279Z,0.00
2017-10-19T03:36:51.255Z,0.00
2017-10-19T03:37:51.234Z,0.00
2017-10-19T03:38:51.214Z,0.00
2017-10-19T03:39:51.205Z,0.00
2017-10-19T03:40:51.167Z,0.00
2017-10-19T03:41:51.153Z,0.00
2017-10-19T03:42:51.128Z,0.00
2017-10-19T03:43:51.107Z,0.00
2017-10-19T03:44:51.088Z,0.00
2017-10-19T03:45:51.066Z,0.00
2017-10-19T03:46:51.051Z,0.00
2017-10-19T03:47:51.029Z,0.00
2017-10-19T03:48:51.025Z,0.00
2017-10-19T03:49:50.984Z,0.00
2017-10-19T03:50:50.969Z,0.00
2017-10-19T03:51:50.940Z,0.00
2017-10-19T03:52:50.920Z,0.00
2017-10-19T03:53:50.897Z,0.00
2017-10-19T03:54:50.877Z,0.00
2017-10-19T03:55:50.865Z,0.00
2017-10-19T03:56:50.836Z,0.00
2017-10-19T03:57:50.823Z,0.00
2017-10-19T03:58:50.794Z,0.00
2017-10-19T03:59:50.781Z,0.00
2017-10-19T04:00:50.753Z,0.00
2017-10-19T04:01:50.733Z,0.00
2017-10-19T04:02:50.710Z,0.00
2017-10-19T04:03:50.690Z,0.00
2017-10-19T04:04:50.704Z,0.00
2017-10-19T04:05:50.643Z,0.00
2017-10-19T04:06:50.624Z,0.00
2017-10-19T04:07:50.605Z,0.00
2017-10-19T04:08:50.588Z,0.00
2017-10-19T04:09:50.572Z,0.00
2017-10-19T04:10:50.541Z,0.00
2017-10-19T04:11:50.526Z,0.00
2017-10-19T04:12:50.505Z,0.00
2017-10-19T04:13:50.476Z,0.00
2017-10-19T04:14:50.458Z,0.00
2017-10-19T04:15:50.435Z,0.00
2017-10-19T04:16:50.417Z,0.00
2017-10-19T04:17:50.396Z,0.00
2017-10-19T04:18:50.371Z,0.00
2017-10-19T04:19:50.354Z,0.00
2017-10-19T04:20:50.331Z,0.00
2017-10-19T04:21:50.309Z,0.00
2017-10-19T04:22:50.296Z,0.00
2017-10-19T04:23:50.265Z,0.00
2017-10-19T04:24:50.245Z,0.00
2017-10-19T04:25:50.224Z,0.00
2017-10-19T04:26:50.206Z,0.00
2017-10-19T04:27:50.184Z,0.00
2017-10-19T04:28:50.160Z,0.00
2017-10-19T04:29:50.141Z,0.00
2017-10-19T04:30:50.116Z,0.00
2017-10-19T04:31:50.101Z,0.00
2017-10-19T04:32:50.079Z,0.00
2017-10-19T04:33:50.057Z,0.00
2017-10-19T04:34:50.041Z,0.00
2017-10-19T04:35:50.014Z,0.00
2017-10-19T04:36:49.992Z,0.00
2017-10-19T04:37:49.970Z,0.00
2017-10-19T04:38:49.955Z,0.00
2017-10-19T04:39:49.930Z,0.00
2017-10-19T04:40:49.908Z,0.00
2017-10-19T04:41:49.901Z,0.00
2017-10-19T04:42:49.868Z,0.00
2017-10-19T04:43:49.847Z,0.00
2017-10-19T04:44:49.817Z,0.00
2017-10-19T04:45:49.802Z,0.00
2017-10-19T04:46:49.795Z,0.00
2017-10-19T04:47:49.769Z,0.00
2017-10-19T04:48:49.774Z,0.00
2017-10-19T04:49:49.717Z,0.00
2017-10-19T04:50:49.712Z,0.00
2017-10-19T04:51:49.673Z,0.00
2017-10-19T04:52:49.661Z,0.00
2017-10-19T04:53:49.630Z,0.00
2017-10-19T04:54:49.620Z,0.00
2017-10-19T04:55:49.590Z,0.00
2017-10-19T04:56:49.567Z,0.00
2017-10-19T04:57:49.553Z,0.00
2017-10-19T04:58:49.523Z,0.00
2017-10-19T04:59:49.506Z,0.00
2017-10-19T05:00:49.495Z,0.00
2017-10-19T05:01:49.462Z,0.00
2017-10-19T05:02:49.443Z,0.00
2017-10-19T05:03:49.423Z,0.00
2017-10-19T05:04:49.400Z,0.00
2017-10-19T05:05:49.378Z,0.00
2017-10-19T05:06:49.360Z,0.00
2017-10-19T05:07:49.344Z,0.00
2017-10-19T05:08:49.309Z,0.00
2017-10-19T05:09:49.295Z,0.00
2017-10-19T05:10:49.296Z,0.00
2017-10-19T05:11:49.246Z,0.00
2017-10-19T05:12:49.235Z,0.00
2017-10-19T05:13:49.208Z,0.00
2017-10-19T05:14:49.193Z,0.00
2017-10-19T05:15:49.177Z,0.00
2017-10-19T05:16:49.144Z,0.00
2017-10-19T05:17:49.116Z,0.00
2017-10-19T05:18:49.106Z,0.00
2017-10-19T05:19:49.096Z,0.00
2017-10-19T05:20:49.056Z,4.00
2017-10-19T05:21:49.040Z,4.00
2017-10-19T05:22:49.030Z,0.00
2017-10-19T05:23:48.996Z,4.00
2017-10-19T05:24:49.211Z,0.00
2017-10-19T05:25:48.958Z,4.00
2017-10-19T05:26:48.939Z,4.00
2017-10-19T05:27:48.911Z,4.00
2017-10-19T05:28:48.891Z,4.00
2017-10-19T05:29:48.873Z,8.00
2017-10-19T05:30:48.850Z,8.00
2017-10-19T05:31:48.832Z,8.00
2017-10-19T05:32:48.804Z,12.00
2017-10-19T05:33:48.803Z,12.00
2017-10-19T05:34:48.765Z,16.00
2017-10-19T05:35:48.752Z,16.00
2017-10-19T05:36:48.727Z,24.00
2017-10-19T05:37:48.697Z,28.00
2017-10-19T05:38:48.677Z,28.00
2017-10-19T05:39:48.664Z,32.00
2017-10-19T05:40:48.651Z,40.00
2017-10-19T05:41:48.614Z,44.00
2017-10-19T05:42:48.607Z,48.00
2017-10-19T05:43:48.580Z,56.00
2017-10-19T05:44:48.572Z,60.00
2017-10-19T05:45:48.532Z,68.00
2017-10-19T05:46:48.513Z,80.00
2017-10-19T05:47:48.500Z,88.00
2017-10-19T05:48:48.479Z,100.00
2017-10-19T05:49:48.490Z,104.00
2017-10-19T05:50:48.444Z,112.00
2017-10-19T05:51:48.408Z,120.00
2017-10-19T05:52:48.392Z,132.00
2017-10-19T05:53:48.380Z,144.00
2017-10-19T05:54:48.349Z,152.00
2017-10-19T05:55:48.321Z,164.00
2017-10-19T05:56:48.304Z,184.00
2017-10-19T05:57:48.281Z,204.00
2017-10-19T05:58:48.281Z,220.00
2017-10-19T05:59:48.237Z,236.00
2017-10-19T06:00:48.241Z,256.00
2017-10-19T06:01:48.269Z,280.00
2017-10-19T06:02:48.180Z,308.00
2017-10-19T06:03:48.161Z,316.00
2017-10-19T06:04:48.133Z,324.00
2017-10-19T06:05:48.219Z,344.00
2017-10-19T06:06:48.091Z,368.00
2017-10-19T06:07:48.063Z,392.00
2017-10-19T06:08:48.044Z,420.00
2017-10-19T06:09:48.033Z,452.00
2017-10-19T06:10:48.005Z,480.00
2017-10-19T06:11:48.000Z,504.00
2017-10-19T06:12:47.962Z,520.00
2017-10-19T06:13:47.963Z,548.00
2017-10-19T06:14:47.925Z,588.00
2017-10-19T06:15:47.901Z,620.00
2017-10-19T06:16:47.883Z,636.00
2017-10-19T06:17:47.864Z,672.00
2017-10-19T06:18:47.846Z,708.00
2017-10-19T06:19:47.810Z,744.00
2017-10-19T06:20:47.805Z,784.00
2017-10-19T06:21:47.850Z,812.00
2017-10-19T06:22:47.774Z,836.00
2017-10-19T06:23:47.768Z,872.00
2017-10-19T06:24:47.727Z,932.00
2017-10-19T06:25:47.684Z,1004.00
2017-10-19T06:26:47.759Z,1032.00
2017-10-19T06:27:47.656Z,1080.00
2017-10-19T06:28:47.621Z,1096.00
2017-10-19T06:29:47.603Z,1084.00
2017-10-19T06:30:47.582Z,1052.00
2017-10-19T06:31:47.568Z,1128.00
2017-10-19T06:32:47.554Z,1180.00
2017-10-19T06:33:47.521Z,1220.00
2017-10-19T06:34:47.498Z,1252.00
2017-10-19T06:35:47.478Z,1364.00
2017-10-19T06:36:47.461Z,1412.00
2017-10-19T06:37:47.435Z,1364.00
2017-10-19T06:38:47.410Z,1312.00
2017-10-19T06:39:47.395Z,1336.00
2017-10-19T06:40:47.362Z,1308.00
2017-10-19T06:41:47.350Z,1240.00
2017-10-19T06:42:47.337Z,1300.00
2017-10-19T06:43:47.301Z,1448.00
2017-10-19T06:44:47.287Z,1512.00
2017-10-19T06:45:47.267Z,1408.00
2017-10-19T06:46:47.242Z,1380.00
2017-10-19T06:47:47.221Z,1324.00
2017-10-19T06:48:47.238Z,1296.00
2017-10-19T06:49:47.208Z,1516.00
2017-10-19T06:50:47.157Z,1708.00
2017-10-19T06:51:47.135Z,1260.00
2017-10-19T06:52:47.117Z,1568.00
2017-10-19T06:53:47.091Z,1420.00
2017-10-19T06:54:47.070Z,1264.00
2017-10-19T06:55:47.056Z,1252.00
2017-10-19T06:56:47.027Z,1308.00
2017-10-19T06:57:47.007Z,1352.00
2017-10-19T06:58:47.025Z,1900.00
2017-10-19T06:59:46.995Z,1836.00
2017-10-19T07:00:46.960Z,1668.00
2017-10-19T07:01:46.925Z,2404.00
2017-10-19T07:02:46.905Z,2684.00
2017-10-19T07:03:46.881Z,2800.00
2017-10-19T07:04:46.870Z,2568.00
2017-10-19T07:05:46.840Z,2308.00
2017-10-19T07:06:46.828Z,1824.00
2017-10-19T07:07:46.807Z,1748.00
2017-10-19T07:08:46.774Z,1884.00
2017-10-19T07:09:46.764Z,2224.00
2017-10-19T07:10:46.769Z,2304.00
2017-10-19T07:11:46.723Z,2580.00
2017-10-19T07:12:46.690Z,2704.00
2017-10-19T07:13:46.674Z,3408.00
2017-10-19T07:14:46.720Z,3844.00
2017-10-19T07:15:46.647Z,3320.00
2017-10-19T07:16:46.620Z,3360.00
2017-10-19T07:17:46.596Z,3408.00
2017-10-19T07:18:46.571Z,3636.00
2017-10-19T07:19:46.587Z,3428.00
2017-10-19T07:20:46.539Z,3276.00
2017-10-19T07:21:46.523Z,3608.00
2017-10-19T07:22:46.497Z,4132.00
2017-10-19T07:23:46.470Z,4116.00
2017-10-19T07:24:46.446Z,3848.00
2017-10-19T07:25:46.432Z,3844.00
2017-10-19T07:26:46.440Z,3916.00
2017-10-19T07:27:46.386Z,3940.00
2017-10-19T07:28:46.381Z,4140.00
2017-10-19T07:29:46.339Z,3900.00
2017-10-19T07:30:46.328Z,3560.00
2017-10-19T07:31:46.306Z,3800.00
2017-10-19T07:32:46.292Z,4368.00
2017-10-19T07:33:46.269Z,4808.00
2017-10-19T07:34:46.248Z,4428.00
2017-10-19T07:35:46.221Z,4256.00
2017-10-19T07:36:46.201Z,4260.00
2017-10-19T07:37:46.188Z,5004.00
2017-10-19T07:38:46.155Z,5240.00
2017-10-19T07:39:46.180Z,5348.00
2017-10-19T07:40:46.111Z,5696.00
2017-10-19T07:41:46.098Z,5800.00
2017-10-19T07:42:46.092Z,5792.00
2017-10-19T07:43:46.063Z,6088.00
2017-10-19T07:44:46.040Z,6844.00
2017-10-19T07:45:46.023Z,7156.00
2017-10-19T07:46:46.002Z,7328.00
2017-10-19T07:47:45.982Z,7460.00
2017-10-19T07:48:46.006Z,6880.00
2017-10-19T07:49:45.942Z,7040.00
2017-10-19T07:50:45.923Z,7656.00
2017-10-19T07:51:45.895Z,7824.00
2017-10-19T07:52:45.926Z,8396.00
2017-10-19T07:53:45.866Z,8956.00
2017-10-19T07:54:45.838Z,9556.00
2017-10-19T07:55:45.820Z,9624.00
2017-10-19T07:56:45.825Z,9388.00
2017-10-19T07:57:45.788Z,8944.00
2017-10-19T07:58:45.750Z,8808.00
2017-10-19T07:59:45.738Z,8768.00
2017-10-19T08:00:45.737Z,8720.00
2017-10-19T08:01:45.746Z,9144.00
2017-10-19T08:02:45.672Z,9752.00
2017-10-19T08:03:45.662Z,9588.00
2017-10-19T08:04:45.660Z,9672.00
2017-10-19T08:05:45.634Z,9896.00
2017-10-19T08:06:45.601Z,10032.00
2017-10-19T08:07:45.585Z,10324.00
2017-10-19T08:08:45.570Z,10256.00
2017-10-19T08:09:45.532Z,10240.00
2017-10-19T08:10:45.516Z,10700.00
2017-10-19T08:11:45.541Z,10684.00
2017-10-19T08:12:45.483Z,10988.00
2017-10-19T08:13:45.461Z,11748.00
2017-10-19T08:14:45.444Z,12140.00
2017-10-19T08:15:45.429Z,11224.00
2017-10-19T08:16:45.403Z,9284.00
2017-10-19T08:17:45.450Z,9800.00
2017-10-19T08:18:45.370Z,9996.00
2017-10-19T08:19:45.353Z,7280.00
2017-10-19T08:20:45.338Z,11352.00
2017-10-19T08:21:45.321Z,12344.00
2017-10-19T08:22:45.292Z,14096.00
2017-10-19T08:23:45.279Z,14336.00
2017-10-19T08:24:45.262Z,13108.00
2017-10-19T08:25:45.238Z,12756.00
2017-10-19T08:26:45.225Z,13188.00
2017-10-19T08:27:45.204Z,12936.00
2017-10-19T08:28:45.184Z,13344.00
2017-10-19T08:29:45.165Z,14244.00
2017-10-19T08:30:45.155Z,14168.00
2017-10-19T08:31:45.126Z,15744.00
2017-10-19T08:32:45.109Z,16736.00
2017-10-19T08:33:45.101Z,22048.00
2017-10-19T08:34:45.075Z,32288.00
2017-10-19T08:35:45.057Z,17664.00
2017-10-19T08:36:45.035Z,27712.00
2017-10-19T08:37:45.021Z,11460.00
2017-10-19T08:38:45.003Z,22368.00
2017-10-19T08:39:44.980Z,21632.00
2017-10-19T08:40:44.964Z,9832.00
2017-10-19T08:41:44.948Z,24096.00
2017-10-19T08:42:44.932Z,27264.00
2017-10-19T08:43:44.909Z,11104.00
2017-10-19T08:44:44.904Z,13600.00
2017-10-19T08:45:44.886Z,25952.00
2017-10-19T08:46:44.866Z,11236.00
2017-10-19T08:47:44.838Z,29376.00
2017-10-19T08:48:44.833Z,33632.00
2017-10-19T08:49:44.814Z,37280.00
2017-10-19T08:50:44.837Z,35360.00
2017-10-19T08:51:44.777Z,36544.00
2017-10-19T08:52:45.519Z,39648.00
2017-10-19T08:53:44.756Z,39200.00
2017-10-19T08:54:44.951Z,17504.00
2017-10-19T08:55:44.717Z,25056.00
2017-10-19T08:56:44.836Z,37120.00
2017-10-19T08:57:44.719Z,23168.00
2017-10-19T08:58:47.628Z,18496.00
2017-10-19T08:59:44.685Z,14816.00
2017-10-19T09:00:44.685Z,16256.00
2017-10-19T09:01:44.643Z,28480.00
2017-10-19T09:02:44.638Z,16928.00
2017-10-19T09:03:44.607Z,13096.00
2017-10-19T09:04:44.596Z,12940.00
2017-10-19T09:05:44.585Z,49120.00
2017-10-19T09:06:44.616Z,12332.00
2017-10-19T09:07:44.569Z,38464.00
2017-10-19T09:08:44.586Z,52128.00
2017-10-19T09:09:44.531Z,52032.00
2017-10-19T09:10:44.673Z,48224.00
2017-10-19T09:11:44.636Z,43488.00
2017-10-19T09:12:44.936Z,46080.00
2017-10-19T09:13:45.537Z,46176.00
2017-10-19T09:14:44.945Z,45984.00
2017-10-19T09:15:45.222Z,47776.00
2017-10-19T09:16:44.475Z,22432.00
2017-10-19T09:17:44.438Z,49504.00
2017-10-19T09:18:44.423Z,50592.00
2017-10-19T09:19:44.446Z,51552.00
2017-10-19T09:20:44.386Z,52288.00
2017-10-19T09:21:44.376Z,50816.00
2017-10-19T09:22:44.380Z,50176.00
2017-10-19T09:23:44.368Z,48960.00
2017-10-19T09:24:47.076Z,46464.00
2017-10-19T09:25:44.362Z,44800.00
2017-10-19T09:26:44.594Z,44320.00
2017-10-19T09:27:44.326Z,48672.00
2017-10-19T09:28:44.355Z,48000.00
2017-10-19T09:29:44.324Z,52000.00
2017-10-19T09:30:44.321Z,36928.00
2017-10-19T09:31:44.279Z,55104.00
2017-10-19T09:32:44.306Z,53440.00
2017-10-19T09:33:44.269Z,51072.00
2017-10-19T09:34:44.344Z,11516.00
2017-10-19T09:35:45.100Z,45920.00
2017-10-19T09:36:44.268Z,54112.00
2017-10-19T09:37:44.284Z,10284.00
2017-10-19T09:38:44.295Z,26784.00
2017-10-19T09:39:44.400Z,12748.00
2017-10-19T09:40:44.176Z,48192.00
2017-10-19T09:41:46.358Z,27488.00
2017-10-19T09:42:44.193Z,20992.00
2017-10-19T09:43:44.199Z,14560.00
2017-10-19T09:44:44.199Z,54432.00
2017-10-19T09:45:44.153Z,45088.00
2017-10-19T09:46:44.162Z,21024.00
2017-10-19T09:47:44.155Z,18560.00
2017-10-19T09:48:44.109Z,63104.00
2017-10-19T09:49:44.111Z,25568.00
2017-10-19T09:50:44.118Z,18080.00
2017-10-19T09:51:44.093Z,14588.00
2017-10-19T09:52:44.097Z,17056.00
2017-10-19T09:53:44.091Z,13204.00
2017-10-19T09:54:44.071Z,49472.00
2017-10-19T09:55:44.059Z,17568.00
2017-10-19T09:56:44.038Z,22688.00
2017-10-19T09:57:44.043Z,15680.00
2017-10-19T09:58:44.019Z,16096.00
2017-10-19T09:59:44.022Z,11904.00
2017-10-19T10:00:44.002Z,13096.00
2017-10-19T10:01:44.013Z,15936.00
2017-10-19T10:02:44.001Z,26848.00
2017-10-19T10:03:43.978Z,12528.00
2017-10-19T10:04:43.979Z,28256.00
2017-10-19T10:05:43.969Z,63264.00
2017-10-19T10:06:43.957Z,61472.00
2017-10-19T10:07:43.935Z,58720.00
2017-10-19T10:08:43.914Z,14768.00
2017-10-19T10:09:43.941Z,29216.00
2017-10-19T10:10:43.895Z,63456.00
2017-10-19T10:11:43.909Z,65152.00
2017-10-19T10:12:43.888Z,56224.00
2017-10-19T10:13:43.875Z,65696.00
2017-10-19T10:14:43.859Z,65920.00
2017-10-19T10:15:43.864Z,65472.00
2017-10-19T10:16:43.855Z,64032.00
2017-10-19T10:17:43.828Z,25568.00
2017-10-19T10:18:43.818Z,19296.00
2017-10-19T10:19:43.827Z,47616.00
2017-10-19T10:20:43.819Z,13884.00
2017-10-19T10:21:43.810Z,57440.00
2017-10-19T10:22:43.796Z,60288.00
2017-10-19T10:23:43.772Z,61024.00
2017-10-19T10:24:43.765Z,55680.00
2017-10-19T10:25:43.806Z,11368.00
2017-10-19T10:26:43.760Z,61184.00
2017-10-19T10:27:43.778Z,60640.00
2017-10-19T10:28:43.769Z,60864.00
2017-10-19T10:29:43.748Z,59520.00
2017-10-19T10:30:44.585Z,53120.00
2017-10-19T10:31:43.729Z,56640.00
2017-10-19T10:32:43.766Z,56192.00
2017-10-19T10:33:44.607Z,53376.00
2017-10-19T10:34:43.712Z,53664.00
2017-10-19T10:35:43.700Z,53440.00
2017-10-19T10:36:43.701Z,53312.00
2017-10-19T10:37:43.721Z,53568.00
2017-10-19T10:38:43.713Z,41440.00
2017-10-19T10:39:43.692Z,21888.00
2017-10-19T10:40:44.601Z,17696.00
2017-10-19T10:41:43.676Z,7576.00
2017-10-19T10:42:43.682Z,16416.00
2017-10-19T10:43:43.652Z,17024.00
2017-10-19T10:44:43.653Z,12116.00
2017-10-19T10:45:43.644Z,16576.00
2017-10-19T10:46:43.639Z,13100.00
2017-10-19T10:47:43.646Z,15008.00
2017-10-19T10:48:43.636Z,9108.00
2017-10-19T10:49:43.646Z,15072.00
2017-10-19T10:50:43.631Z,11104.00
2017-10-19T10:51:43.655Z,9844.00
2017-10-19T10:52:43.606Z,12544.00
2017-10-19T10:53:43.651Z,13680.00
2017-10-19T10:54:43.616Z,13784.00
2017-10-19T10:55:44.344Z,14048.00
2017-10-19T10:56:43.593Z,14112.00
2017-10-19T10:57:44.101Z,9276.00
2017-10-19T10:58:43.589Z,9076.00
2017-10-19T10:59:43.585Z,10796.00
2017-10-19T11:00:43.911Z,9092.00
2017-10-19T11:01:43.567Z,10212.00
2017-10-19T11:02:43.570Z,9804.00
2017-10-19T11:03:43.675Z,14496.00
2017-10-19T11:04:43.570Z,10148.00
2017-10-19T11:05:43.566Z,15328.00
2017-10-19T11:06:43.538Z,9760.00
2017-10-19T11:07:43.566Z,9568.00
2017-10-19T11:08:43.547Z,9032.00
2017-10-19T11:09:43.521Z,8504.00
2017-10-19T11:10:43.522Z,8648.00
2017-10-19T11:11:43.529Z,8520.00
2017-10-19T11:12:43.502Z,8248.00
2017-10-19T11:13:43.492Z,8224.00
2017-10-19T11:14:43.502Z,8284.00
2017-10-19T11:15:43.493Z,7712.00
2017-10-19T11:16:43.492Z,7776.00
2017-10-19T11:17:43.458Z,12696.00
2017-10-19T11:18:43.456Z,7832.00
2017-10-19T11:19:43.449Z,7532.00
2017-10-19T11:20:43.435Z,7984.00
2017-10-19T11:21:43.451Z,8500.00
2017-10-19T11:22:43.424Z,7772.00
2017-10-19T11:23:43.422Z,7796.00
2017-10-19T11:24:43.403Z,8032.00
2017-10-19T11:25:43.421Z,9460.00
2017-10-19T11:26:43.413Z,8452.00
2017-10-19T11:27:43.415Z,9156.00
2017-10-19T11:28:43.366Z,9256.00
2017-10-19T11:29:43.352Z,11328.00
2017-10-19T11:30:43.338Z,9696.00
2017-10-19T11:31:43.338Z,9584.00
2017-10-19T11:32:43.332Z,8436.00
2017-10-19T11:33:43.320Z,8808.00
2017-10-19T11:34:43.315Z,8292.00
2017-10-19T11:35:43.374Z,8228.00
2017-10-19T11:36:43.285Z,8452.00
2017-10-19T11:37:43.290Z,12756.00
2017-10-19T11:38:43.282Z,10108.00
2017-10-19T11:39:43.269Z,8652.00
2017-10-19T11:40:43.273Z,9176.00
2017-10-19T11:41:43.225Z,11004.00
2017-10-19T11:42:43.247Z,10996.00
2017-10-19T11:43:43.233Z,8592.00
2017-10-19T11:44:43.190Z,8464.00
2017-10-19T11:45:43.198Z,10760.00
2017-10-19T11:46:43.179Z,8152.00
2017-10-19T11:47:43.192Z,8444.00
2017-10-19T11:48:43.153Z,8196.00
2017-10-19T11:49:43.171Z,7860.00
2017-10-19T11:50:43.178Z,9220.00
2017-10-19T11:51:43.158Z,8256.00
2017-10-19T11:52:43.142Z,7584.00
2017-10-19T11:53:43.105Z,7632.00
2017-10-19T11:54:43.099Z,7964.00
2017-10-19T11:55:43.094Z,8676.00
2017-10-19T11:56:43.179Z,8640.00
2017-10-19T11:57:43.068Z,8316.00
2017-10-19T11:58:43.051Z,8220.00
2017-10-19T11:59:43.061Z,8252.00
2017-10-19T12:00:43.077Z,8508.00
2017-10-19T12:01:43.024Z,8636.00
2017-10-19T12:02:43.039Z,8944.00
2017-10-19T12:03:43.027Z,9124.00
2017-10-19T12:04:43.011Z,8988.00
2017-10-19T12:05:43.005Z,8804.00
2017-10-19T12:06:42.990Z,7868.00
2017-10-19T12:07:42.956Z,7340.00
2017-10-19T12:08:42.960Z,6888.00
2017-10-19T12:09:42.945Z,6524.00
2017-10-19T12:10:42.919Z,6108.00
2017-10-19T12:11:42.928Z,5680.00
2017-10-19T12:12:42.908Z,5588.00
2017-10-19T12:13:42.908Z,5224.00
2017-10-19T12:14:42.881Z,4888.00
2017-10-19T12:15:42.862Z,4712.00
2017-10-19T12:16:42.880Z,4632.00
2017-10-19T12:17:42.870Z,4340.00
2017-10-19T12:18:42.825Z,4308.00
2017-10-19T12:19:42.840Z,4000.00
2017-10-19T12:20:42.827Z,4224.00
2017-10-19T12:21:42.839Z,4420.00
2017-10-19T12:22:42.802Z,5060.00
2017-10-19T12:23:42.763Z,5948.00
2017-10-19T12:24:42.791Z,8440.00
2017-10-19T12:25:42.756Z,9784.00
2017-10-19T12:26:42.743Z,9048.00
2017-10-19T12:27:42.732Z,9692.00
2017-10-19T12:28:42.709Z,8064.00
2017-10-19T12:29:42.689Z,5788.00
2017-10-19T12:30:42.689Z,4840.00
2017-10-19T12:31:42.685Z,4424.00
2017-10-19T12:32:42.667Z,4636.00